createdAt,value
2018-09-12T00:00:08.496Z,1009.2
2018-09-12T00:01:12.478Z,1009.1
2018-09-12T00:02:15.589Z,1009.1
2018-09-12T00:03:19.129Z,1009.2
2018-09-12T00:04:22.275Z,1009.2
2018-09-12T00:05:26.744Z,1009.2
2018-09-12T00:06:31.520Z,1009.2
2018-09-12T00:07:35.012Z,1009.2
2018-09-12T00:08:39.030Z,1009.2
2018-09-12T00:09:42.751Z,1009.2
2018-09-12T00:10:47.502Z,1009.2
2018-09-12T00:11:50.045Z,1009.2
2018-09-12T00:12:52.692Z,1009.2
2018-09-12T00:13:56.294Z,1009.2
2018-09-12T00:15:00.549Z,1009.2
2018-09-12T00:16:05.663Z,1009.2
2018-09-12T00:17:08.057Z,1009.1
2018-09-12T00:18:11.308Z,1009.2
2018-09-12T00:19:15.324Z,1009.2
2018-09-12T00:20:18.347Z,1009.1
2018-09-12T00:21:21.755Z,1009.1
2018-09-12T00:22:26.046Z,1009.1
2018-09-12T00:23:29.156Z,1009.1
2018-09-12T00:24:33.224Z,1009.2
2018-09-12T00:25:37.064Z,1009.2
2018-09-12T00:26:43.245Z,1009.2
2018-09-12T00:27:49.484Z,1009.1
2018-09-12T00:28:55.575Z,1009.1
2018-09-12T00:29:59.691Z,1009.1
2018-09-12T00:31:02.982Z,1009.2
2018-09-12T00:32:06.939Z,1009.2
2018-09-12T00:33:12.092Z,1009.2
2018-09-12T00:34:16.850Z,1009.2
2018-09-12T00:35:20.118Z,1009.1
2018-09-12T00:36:22.792Z,1009.1
2018-09-12T00:37:25.635Z,1009.2
2018-09-12T00:38:28.099Z,1009
2018-09-12T00:39:31.223Z,1009.2
2018-09-12T00:40:35.148Z,1009.2
2018-09-12T00:41:41.403Z,1009.1
2018-09-12T00:42:44.346Z,1009.1
2018-09-12T00:43:47.821Z,1009.2
2018-09-12T00:44:51.699Z,1009.1
2018-09-12T00:45:58.221Z,1009.2
2018-09-12T00:47:02.644Z,1009.2
2018-09-12T00:48:05.189Z,1009.2
2018-09-12T00:49:07.528Z,1009.2
2018-09-12T00:50:10.341Z,1009.1
2018-09-12T00:51:13.554Z,1009.1
2018-09-12T00:52:18.798Z,1009.1
2018-09-12T00:53:22.064Z,1009.1
2018-09-12T00:54:24.557Z,1009.1
2018-09-12T00:55:26.666Z,1009.1
2018-09-12T00:56:28.764Z,1009.1
2018-09-12T00:57:30.882Z,1009.1
2018-09-12T00:58:33.277Z,1009.1
2018-09-12T00:59:35.382Z,1009.1
2018-09-12T01:00:37.482Z,1009.1
2018-09-12T01:01:39.594Z,1009
2018-09-12T01:02:41.691Z,1009
2018-09-12T01:03:43.801Z,1009
2018-09-12T01:04:45.915Z,1009
2018-09-12T01:05:48.017Z,1009
2018-09-12T01:06:50.425Z,1009
2018-09-12T01:07:52.533Z,1009
2018-09-12T01:08:54.642Z,1009
2018-09-12T01:09:57.030Z,1009
2018-09-12T01:10:59.131Z,1009
2018-09-12T01:12:01.243Z,1009
2018-09-12T01:13:03.333Z,1009
2018-09-12T01:14:05.737Z,1009
2018-09-12T01:15:07.837Z,1009
2018-09-12T01:16:09.952Z,1009
2018-09-12T01:17:12.039Z,1009
2018-09-12T01:18:14.155Z,1009
2018-09-12T01:19:16.272Z,1009.1
2018-09-12T01:20:18.383Z,1009
2018-09-12T01:21:20.487Z,1009
2018-09-12T01:22:22.580Z,1009
2018-09-12T01:23:24.687Z,1009
2018-09-12T01:24:27.079Z,1009
2018-09-12T01:25:29.483Z,1009
2018-09-12T01:26:31.579Z,1009
2018-09-12T01:27:33.698Z,1009
2018-09-12T01:28:35.811Z,1009
2018-09-12T01:29:37.902Z,1009
2018-09-12T01:30:40.012Z,1009
2018-09-12T01:31:42.119Z,1009
2018-09-12T01:32:44.221Z,1009
2018-09-12T01:33:46.330Z,1009
2018-09-12T01:34:48.442Z,1009
2018-09-12T01:35:51.217Z,1009
2018-09-12T01:36:53.625Z,1008.9
2018-09-12T01:37:55.737Z,1009
2018-09-12T01:38:57.845Z,1008.8
2018-09-12T01:40:00.239Z,1008.9
2018-09-12T01:41:02.350Z,1008.9
2018-09-12T01:42:04.745Z,1008.9
2018-09-12T01:43:06.857Z,1008.9
2018-09-12T01:44:08.966Z,1009
2018-09-12T01:45:11.072Z,1008.9
2018-09-12T01:46:14.127Z,1009
2018-09-12T01:47:16.239Z,1009
2018-09-12T01:48:18.343Z,1009
2018-09-12T01:49:20.461Z,1009
2018-09-12T01:50:22.838Z,1009
2018-09-12T01:51:24.957Z,1009
2018-09-12T01:52:27.376Z,1009
2018-09-12T01:53:29.781Z,1009
2018-09-12T01:54:31.903Z,1009
2018-09-12T01:55:34.001Z,1009.1
2018-09-12T01:56:36.111Z,1009
2018-09-12T01:57:38.218Z,1009.1
2018-09-12T01:58:40.339Z,1009
2018-09-12T01:59:42.437Z,1009
2018-09-12T02:00:44.543Z,1009
2018-09-12T02:01:46.651Z,1009
2018-09-12T02:02:48.744Z,1009
2018-09-12T02:03:50.864Z,1008.9
2018-09-12T02:04:53.646Z,1008.9
2018-09-12T02:05:55.743Z,1008.9
2018-09-12T02:06:57.850Z,1008.9
2018-09-12T02:07:59.969Z,1009
2018-09-12T02:09:02.069Z,1009
2018-09-12T02:10:04.859Z,1008.9
2018-09-12T02:11:07.303Z,1008.9
2018-09-12T02:12:09.402Z,1009
2018-09-12T02:13:11.506Z,1009
2018-09-12T02:14:13.620Z,1009
2018-09-12T02:15:15.712Z,1009.1
2018-09-12T02:16:17.820Z,1009.1
2018-09-12T02:17:20.303Z,1009.1
2018-09-12T02:18:22.688Z,1009.1
2018-09-12T02:19:24.812Z,1009.1
2018-09-12T02:20:27.230Z,1009.1
2018-09-12T02:21:29.627Z,1009.2
2018-09-12T02:22:31.726Z,1009.1
2018-09-12T02:23:33.831Z,1009.1
2018-09-12T02:24:35.942Z,1009.2
2018-09-12T02:25:38.052Z,1009.2
2018-09-12T02:26:40.149Z,1009.2
2018-09-12T02:27:42.269Z,1009.2
2018-09-12T02:28:44.364Z,1009.2
2018-09-12T02:29:46.472Z,1009.2
2018-09-12T02:30:48.859Z,1009.3
2018-09-12T02:31:50.979Z,1009.2
2018-09-12T02:32:53.091Z,1009.3
2018-09-12T02:33:55.196Z,1009.3
2018-09-12T02:34:58.483Z,1009.2
2018-09-12T02:36:00.962Z,1009.3
2018-09-12T02:37:03.363Z,1009.2
2018-09-12T02:38:05.762Z,1009.2
2018-09-12T02:39:07.861Z,1009.3
2018-09-12T02:40:10.353Z,1009.3
2018-09-12T02:41:13.068Z,1009.2
2018-09-12T02:42:15.171Z,1009.2
2018-09-12T02:43:17.590Z,1009.2
2018-09-12T02:44:19.691Z,1009.2
2018-09-12T02:45:22.076Z,1009.1
2018-09-12T02:46:24.789Z,1009.2
2018-09-12T02:47:26.893Z,1009.2
2018-09-12T02:48:29.377Z,1009.2
2018-09-12T02:49:31.772Z,1009.2
2018-09-12T02:50:33.879Z,1009.2
2018-09-12T02:51:35.982Z,1009.2
2018-09-12T02:52:38.479Z,1009.2
2018-09-12T02:53:40.577Z,1009.2
2018-09-12T02:54:42.678Z,1009.2
2018-09-12T02:55:45.163Z,1009.2
2018-09-12T02:56:47.272Z,1009.2
2018-09-12T02:57:49.364Z,1009.2
2018-09-12T02:58:52.073Z,1009.2
2018-09-12T02:59:54.474Z,1009.1
2018-09-12T03:00:56.562Z,1009.1
2018-09-12T03:01:58.671Z,1009.1
2018-09-12T03:03:00.771Z,1009.1
2018-09-12T03:04:03.168Z,1009.1
2018-09-12T03:05:05.261Z,1009.1
2018-09-12T03:06:07.375Z,1009.2
2018-09-12T03:07:09.474Z,1009.1
2018-09-12T03:08:11.862Z,1009.1
2018-09-12T03:09:14.269Z,1009.2
2018-09-12T03:10:16.749Z,1009.1
2018-09-12T03:11:18.862Z,1009.1
2018-09-12T03:12:20.977Z,1009.1
2018-09-12T03:13:23.755Z,1009.1
2018-09-12T03:14:26.420Z,1009.1
2018-09-12T03:15:28.528Z,1009.1
2018-09-12T03:16:30.919Z,1009.1
2018-09-12T03:17:33.623Z,1009.1
2018-09-12T03:18:36.123Z,1009.1
2018-09-12T03:19:38.232Z,1009.1
2018-09-12T03:20:41.109Z,1009.1
2018-09-12T03:21:43.687Z,1009.1
2018-09-12T03:22:45.789Z,1009.1
2018-09-12T03:23:47.892Z,1009.1
2018-09-12T03:24:50.312Z,1009.1
2018-09-12T03:25:52.407Z,1009.1
2018-09-12T03:26:54.518Z,1009.1
2018-09-12T03:27:56.618Z,1009.1
2018-09-12T03:28:58.734Z,1009
2018-09-12T03:30:00.823Z,1009
2018-09-12T03:31:03.218Z,1009
2018-09-12T03:32:05.634Z,1009
2018-09-12T03:33:08.330Z,1009
2018-09-12T03:34:11.031Z,1009
2018-09-12T03:35:13.123Z,1009
2018-09-12T03:36:15.224Z,1009
2018-09-12T03:37:17.324Z,1009
2018-09-12T03:38:19.437Z,1008.9
2018-09-12T03:39:21.532Z,1009
2018-09-12T03:40:23.631Z,1008.9
2018-09-12T03:41:26.046Z,1008.9
2018-09-12T03:42:28.546Z,1008.9
2018-09-12T03:43:30.934Z,1009
2018-09-12T03:44:33.036Z,1009
2018-09-12T03:45:35.433Z,1009
2018-09-12T03:46:37.854Z,1009
2018-09-12T03:47:40.235Z,1009
2018-09-12T03:48:42.742Z,1009
2018-09-12T03:49:44.832Z,1008.9
2018-09-12T03:50:47.330Z,1008.9
2018-09-12T03:51:49.445Z,1008.9
2018-09-12T03:52:51.549Z,1008.9
2018-09-12T03:53:53.956Z,1008.9
2018-09-12T03:54:56.072Z,1008.9
2018-09-12T03:55:58.169Z,1008.9
2018-09-12T03:57:00.267Z,1008.9
2018-09-12T03:58:02.383Z,1008.8
2018-09-12T03:59:04.465Z,1008.9
2018-09-12T04:00:06.885Z,1008.9
2018-09-12T04:01:08.986Z,1008.9
2018-09-12T04:02:11.405Z,1008.8
2018-09-12T04:03:13.500Z,1008.8
2018-09-12T04:04:15.617Z,1008.8
2018-09-12T04:05:17.722Z,1008.8
2018-09-12T04:06:19.818Z,1008.8
2018-09-12T04:07:21.934Z,1008.7
2018-09-12T04:08:24.026Z,1008.8
2018-09-12T04:09:26.445Z,1008.7
2018-09-12T04:10:28.839Z,1008.7
2018-09-12T04:11:30.956Z,1008.7
2018-09-12T04:12:33.063Z,1008.7
2018-09-12T04:13:35.168Z,1008.8
2018-09-12T04:14:37.277Z,1008.9
2018-09-12T04:15:39.363Z,1008.8
2018-09-12T04:16:41.560Z,1008.9
2018-09-12T04:17:43.938Z,1008.9
2018-09-12T04:18:46.750Z,1008.8
2018-09-12T04:19:48.853Z,1008.8
2018-09-12T04:20:51.241Z,1008.8
2018-09-12T04:21:53.346Z,1008.8
2018-09-12T04:22:55.443Z,1008.8
2018-09-12T04:23:57.542Z,1008.8
2018-09-12T04:24:59.948Z,1008.8
2018-09-12T04:26:02.353Z,1008.9
2018-09-12T04:27:04.440Z,1008.9
2018-09-12T04:28:06.564Z,1008.9
2018-09-12T04:29:08.656Z,1008.9
2018-09-12T04:30:10.750Z,1008.9
2018-09-12T04:31:13.441Z,1008.9
2018-09-12T04:32:15.529Z,1008.9
2018-09-12T04:33:17.639Z,1008.9
2018-09-12T04:34:19.744Z,1009
2018-09-12T04:35:21.865Z,1009
2018-09-12T04:36:24.273Z,1009
2018-09-12T04:37:26.669Z,1009
2018-09-12T04:38:28.771Z,1009
2018-09-12T04:39:30.864Z,1009.1
2018-09-12T04:40:32.987Z,1009.1
2018-09-12T04:41:35.086Z,1009
2018-09-12T04:42:37.198Z,1009.1
2018-09-12T04:43:39.293Z,1009.1
2018-09-12T04:44:41.408Z,1009.1
2018-09-12T04:45:43.790Z,1009.1
2018-09-12T04:46:46.054Z,1009.2
2018-09-12T04:47:48.166Z,1009.2
2018-09-12T04:48:50.257Z,1009.2
2018-09-12T04:49:52.371Z,1009.2
2018-09-12T04:50:54.767Z,1009.2
2018-09-12T04:51:57.145Z,1009.2
2018-09-12T04:52:59.565Z,1009.2
2018-09-12T04:54:01.727Z,1009.2
2018-09-12T04:55:04.125Z,1009.2
2018-09-12T04:56:06.227Z,1009.2
2018-09-12T04:57:08.326Z,1009.2
2018-09-12T04:58:10.731Z,1009.1
2018-09-12T04:59:12.829Z,1009.1
2018-09-12T05:00:14.929Z,1009.2
2018-09-12T05:01:17.370Z,1009.2
2018-09-12T05:02:20.048Z,1009.2
2018-09-12T05:03:22.535Z,1009.2
2018-09-12T05:04:24.942Z,1009.2
2018-09-12T05:05:27.476Z,1009.2
2018-09-12T05:06:29.879Z,1009.2
2018-09-12T05:07:32.380Z,1009.2
2018-09-12T05:08:34.777Z,1009.2
2018-09-12T05:09:36.880Z,1009.2
2018-09-12T05:10:39.577Z,1009.2
2018-09-12T05:11:41.693Z,1009.2
2018-09-12T05:12:43.782Z,1009.2
2018-09-12T05:13:46.287Z,1009.2
2018-09-12T05:14:48.383Z,1009.2
2018-09-12T05:15:50.549Z,1009.2
2018-09-12T05:16:52.588Z,1009.2
2018-09-12T05:17:54.988Z,1009.2
2018-09-12T05:18:57.081Z,1009.2
2018-09-12T05:19:59.208Z,1009.3
2018-09-12T05:21:01.295Z,1009.2
2018-09-12T05:22:03.806Z,1009.3
2018-09-12T05:23:05.913Z,1009.3
2018-09-12T05:24:08.022Z,1009.3
2018-09-12T05:25:10.114Z,1009.3
2018-09-12T05:26:12.798Z,1009.3
2018-09-12T05:27:14.917Z,1009.3
2018-09-12T05:28:17.692Z,1009.3
2018-09-12T05:29:19.803Z,1009.3
2018-09-12T05:30:21.906Z,1009.4
2018-09-12T05:31:23.995Z,1009.4
2018-09-12T05:32:26.484Z,1009.5
2018-09-12T05:33:28.593Z,1009.4
2018-09-12T05:34:30.682Z,1009.4
2018-09-12T05:35:32.796Z,1009.4
2018-09-12T05:36:35.288Z,1009.4
2018-09-12T05:37:37.382Z,1009.4
2018-09-12T05:38:39.499Z,1009.4
2018-09-12T05:39:41.904Z,1009.5
2018-09-12T05:40:44.010Z,1009.4
2018-09-12T05:41:46.104Z,1009.4
2018-09-12T05:42:48.223Z,1009.4
2018-09-12T05:43:50.321Z,1009.4
2018-09-12T05:44:52.419Z,1009.4
2018-09-12T05:45:54.529Z,1009.4
2018-09-12T05:46:56.922Z,1009.4
2018-09-12T05:47:59.035Z,1009.5
2018-09-12T05:49:01.536Z,1009.4
2018-09-12T05:50:04.079Z,1009.5
2018-09-12T05:51:06.121Z,1009.4
2018-09-12T05:52:08.232Z,1009.5
2018-09-12T05:53:10.635Z,1009.5
2018-09-12T05:54:12.730Z,1009.5
2018-09-12T05:55:15.165Z,1009.5
2018-09-12T05:56:17.254Z,1009.5
2018-09-12T05:57:19.355Z,1009.5
2018-09-12T05:58:21.464Z,1009.5
2018-09-12T05:59:23.567Z,1009.5
2018-09-12T06:00:26.059Z,1009.5
2018-09-12T06:01:28.162Z,1009.5
2018-09-12T06:02:30.255Z,1009.5
2018-09-12T06:03:32.363Z,1009.5
2018-09-12T06:04:34.471Z,1009.5
2018-09-12T06:05:36.867Z,1009.5
2018-09-12T06:06:39.034Z,1009.5
2018-09-12T06:07:41.074Z,1009.5
2018-09-12T06:08:43.458Z,1009.5
2018-09-12T06:09:45.563Z,1009.5
2018-09-12T06:10:47.657Z,1009.6
2018-09-12T06:11:49.771Z,1009.5
2018-09-12T06:12:51.869Z,1009.5
2018-09-12T06:13:53.972Z,1009.5
2018-09-12T06:14:56.065Z,1009.5
2018-09-12T06:15:58.181Z,1009.5
2018-09-12T06:17:00.280Z,1009.4
2018-09-12T06:18:02.782Z,1009.4
2018-09-12T06:19:04.891Z,1009.4
2018-09-12T06:20:06.977Z,1009.4
2018-09-12T06:21:09.088Z,1009.3
2018-09-12T06:22:11.194Z,1009.3
2018-09-12T06:23:13.305Z,1009.4
2018-09-12T06:24:15.685Z,1009.4
2018-09-12T06:25:18.097Z,1009.5
2018-09-12T06:26:20.199Z,1009.5
2018-09-12T06:27:22.291Z,1009.4
2018-09-12T06:28:24.704Z,1009.5
2018-09-12T06:29:26.794Z,1009.5
2018-09-12T06:30:28.896Z,1009.5
2018-09-12T06:31:31.009Z,1009.5
2018-09-12T06:32:33.116Z,1009.5
2018-09-12T06:33:35.208Z,1009.5
2018-09-12T06:34:37.319Z,1009.5
2018-09-12T06:35:39.416Z,1009.5
2018-09-12T06:36:41.519Z,1009.5
2018-09-12T06:37:43.681Z,1009.6
2018-09-12T06:38:46.451Z,1009.5
2018-09-12T06:39:48.506Z,1009.5
2018-09-12T06:40:50.937Z,1009.6
2018-09-12T06:41:53.334Z,1009.5
2018-09-12T06:42:55.428Z,1009.5
2018-09-12T06:43:57.544Z,1009.5
2018-09-12T06:44:59.632Z,1009.5
2018-09-12T06:46:02.034Z,1009.6
2018-09-12T06:47:04.427Z,1009.6
2018-09-12T06:48:06.536Z,1009.7
2018-09-12T06:49:08.639Z,1009.7
2018-09-12T06:50:10.736Z,1009.7
2018-09-12T06:51:12.837Z,1009.8
2018-09-12T06:52:14.951Z,1009.8
2018-09-12T06:53:17.441Z,1009.8
2018-09-12T06:54:19.557Z,1009.8
2018-09-12T06:55:21.663Z,1009.8
2018-09-12T06:56:23.770Z,1009.9
2018-09-12T06:57:26.180Z,1009.9
2018-09-12T06:58:28.301Z,1009.8
2018-09-12T06:59:30.399Z,1009.9
2018-09-12T07:00:32.808Z,1009.8
2018-09-12T07:01:35.223Z,1009.8
2018-09-12T07:02:37.309Z,1009.7
2018-09-12T07:03:39.424Z,1009.7
2018-09-12T07:04:42.117Z,1009.7
2018-09-12T07:05:44.219Z,1009.7
2018-09-12T07:06:46.315Z,1009.8
2018-09-12T07:07:48.421Z,1009.8
2018-09-12T07:08:50.518Z,1009.8
2018-09-12T07:09:52.917Z,1009.7
2018-09-12T07:10:55.023Z,1009.7
2018-09-12T07:11:57.130Z,1009.8
2018-09-12T07:12:59.224Z,1009.8
2018-09-12T07:14:01.354Z,1009.8
2018-09-12T07:15:03.815Z,1009.8
2018-09-12T07:16:05.925Z,1009.8
2018-09-12T07:17:08.328Z,1009.7
2018-09-12T07:18:10.713Z,1009.7
2018-09-12T07:19:13.115Z,1009.7
2018-09-12T07:20:15.225Z,1009.7
2018-09-12T07:21:17.335Z,1009.7
2018-09-12T07:22:19.427Z,1009.7
2018-09-12T07:23:21.544Z,1009.7
2018-09-12T07:24:23.703Z,1009.7
2018-09-12T07:25:26.031Z,1009.8
2018-09-12T07:26:28.521Z,1009.9
2018-09-12T07:27:31.233Z,1009.9
2018-09-12T07:28:33.323Z,1009.9
2018-09-12T07:29:35.431Z,1009.9
2018-09-12T07:30:37.672Z,1009.9
2018-09-12T07:31:39.671Z,1009.9
2018-09-12T07:32:41.771Z,1010
2018-09-12T07:33:44.258Z,1010
2018-09-12T07:34:46.687Z,1010
2018-09-12T07:35:48.783Z,1010
2018-09-12T07:36:51.188Z,1009.9
2018-09-12T07:37:53.308Z,1010
2018-09-12T07:38:55.732Z,1010.1
2018-09-12T07:39:58.122Z,1010.1
2018-09-12T07:41:00.229Z,1010.1
2018-09-12T07:42:03.010Z,1010.1
2018-09-12T07:43:05.117Z,1010.1
2018-09-12T07:44:07.526Z,1010.1
2018-09-12T07:45:09.629Z,1010.1
2018-09-12T07:46:11.726Z,1010.1
2018-09-12T07:47:14.135Z,1010
2018-09-12T07:48:16.230Z,1010
2018-09-12T07:49:18.331Z,1010
2018-09-12T07:50:20.442Z,1010
2018-09-12T07:51:22.828Z,1009.9
2018-09-12T07:52:24.940Z,1009.9
2018-09-12T07:53:27.348Z,1009.8
2018-09-12T07:54:29.459Z,1009.8
2018-09-12T07:55:31.551Z,1009.8
2018-09-12T07:56:33.664Z,1009.8
2018-09-12T07:57:36.488Z,1009.9
2018-09-12T07:58:39.159Z,1010
2018-09-12T07:59:41.275Z,1009.9
2018-09-12T08:00:43.670Z,1010
2018-09-12T08:01:45.768Z,1010
2018-09-12T08:02:47.867Z,1010
2018-09-12T08:03:49.986Z,1009.9
2018-09-12T08:04:52.089Z,1010
2018-09-12T08:05:54.645Z,1010
2018-09-12T08:06:56.755Z,1010
2018-09-12T08:07:59.230Z,1010
2018-09-12T08:09:01.343Z,1010
2018-09-12T08:10:03.447Z,1010
2018-09-12T08:11:05.543Z,1010
2018-09-12T08:12:07.708Z,1010
2018-09-12T08:13:09.766Z,1009.9
2018-09-12T08:14:12.264Z,1009.9
2018-09-12T08:15:14.406Z,1009.9
2018-09-12T08:16:16.477Z,1010
2018-09-12T08:17:18.966Z,1009.9
2018-09-12T08:18:21.072Z,1009.9
2018-09-12T08:19:23.180Z,1009.9
2018-09-12T08:20:25.596Z,1010
2018-09-12T08:21:27.703Z,1010
2018-09-12T08:22:29.809Z,1010
2018-09-12T08:23:31.909Z,1010
2018-09-12T08:24:34.345Z,1010
2018-09-12T08:25:36.733Z,1010
2018-09-12T08:26:38.867Z,1010
2018-09-12T08:27:41.254Z,1010
2018-09-12T08:28:43.369Z,1010
2018-09-12T08:29:45.475Z,1010.1
2018-09-12T08:30:47.581Z,1010.2
2018-09-12T08:31:49.695Z,1010.1
2018-09-12T08:32:51.784Z,1010.2
2018-09-12T08:33:53.902Z,1010.2
2018-09-12T08:34:56.005Z,1010.1
2018-09-12T08:35:58.124Z,1010.2
2018-09-12T08:37:00.216Z,1010.2
2018-09-12T08:38:02.324Z,1010.3
2018-09-12T08:39:04.425Z,1010.3
2018-09-12T08:40:06.525Z,1010.3
2018-09-12T08:41:08.646Z,1010.3
2018-09-12T08:42:10.779Z,1010.3
2018-09-12T08:43:13.292Z,1010.4
2018-09-12T08:44:15.389Z,1010.3
2018-09-12T08:45:17.492Z,1010.3
2018-09-12T08:46:19.905Z,1010.3
2018-09-12T08:47:22.287Z,1010.4
2018-09-12T08:48:24.397Z,1010.4
2018-09-12T08:49:26.500Z,1010.5
2018-09-12T08:50:28.596Z,1010.6
2018-09-12T08:51:31.092Z,1010.6
2018-09-12T08:52:33.200Z,1010.6
2018-09-12T08:53:35.297Z,1010.5
2018-09-12T08:54:37.805Z,1010.5
2018-09-12T08:55:40.199Z,1010.5
2018-09-12T08:56:42.329Z,1010.6
2018-09-12T08:57:44.418Z,1010.6
2018-09-12T08:58:46.512Z,1010.6
2018-09-12T08:59:48.613Z,1010.6
2018-09-12T09:00:50.706Z,1010.6
2018-09-12T09:01:52.826Z,1010.7
2018-09-12T09:02:54.920Z,1010.7
2018-09-12T09:03:57.391Z,1010.7
2018-09-12T09:04:59.773Z,1010.7
2018-09-12T09:06:01.865Z,1010.8
2018-09-12T09:07:04.372Z,1010.8
2018-09-12T09:08:06.768Z,1010.7
2018-09-12T09:09:08.867Z,1010.7
2018-09-12T09:10:10.957Z,1010.8
2018-09-12T09:11:13.066Z,1010.8
2018-09-12T09:12:15.162Z,1010.8
2018-09-12T09:13:17.258Z,1010.8
2018-09-12T09:14:19.379Z,1010.8
2018-09-12T09:15:21.470Z,1010.8
2018-09-12T09:16:23.569Z,1010.8
2018-09-12T09:17:25.741Z,1010.8
2018-09-12T09:18:27.800Z,1010.8
2018-09-12T09:19:30.472Z,1010.7
2018-09-12T09:20:32.572Z,1010.7
2018-09-12T09:21:34.661Z,1010.7
2018-09-12T09:22:36.767Z,1010.6
2018-09-12T09:23:38.891Z,1010.7
2018-09-12T09:24:40.985Z,1010.7
2018-09-12T09:25:43.082Z,1010.7
2018-09-12T09:26:45.485Z,1010.8
2018-09-12T09:27:47.580Z,1010.8
2018-09-12T09:28:49.675Z,1010.7
2018-09-12T09:29:51.788Z,1010.7
2018-09-12T09:30:54.175Z,1010.7
2018-09-12T09:31:56.281Z,1010.7
2018-09-12T09:32:58.384Z,1010.8
2018-09-12T09:34:00.496Z,1010.8
2018-09-12T09:35:03.037Z,1010.9
2018-09-12T09:36:05.777Z,1010.9
2018-09-12T09:37:07.877Z,1010.9
2018-09-12T09:38:09.965Z,1010.9
2018-09-12T09:39:12.087Z,1010.9
2018-09-12T09:40:15.072Z,1010.8
2018-09-12T09:41:17.167Z,1010.8
2018-09-12T09:42:19.554Z,1010.8
2018-09-12T09:43:21.671Z,1010.8
2018-09-12T09:44:24.068Z,1010.8
2018-09-12T09:45:26.483Z,1010.7
2018-09-12T09:46:28.981Z,1010.8
2018-09-12T09:47:31.066Z,1010.7
2018-09-12T09:48:33.181Z,1010.8
2018-09-12T09:49:35.681Z,1010.8
2018-09-12T09:50:38.144Z,1010.8
2018-09-12T09:51:40.165Z,1010.8
2018-09-12T09:52:42.273Z,1010.7
2018-09-12T09:53:44.372Z,1010.7
2018-09-12T09:54:46.594Z,1010.8
2018-09-12T09:55:48.589Z,1010.8
2018-09-12T09:56:50.686Z,1010.9
2018-09-12T09:57:52.785Z,1010.9
2018-09-12T09:58:55.182Z,1010.9
2018-09-12T09:59:57.291Z,1010.9
2018-09-12T10:00:59.402Z,1010.9
2018-09-12T10:02:01.496Z,1011
2018-09-12T10:03:03.911Z,1011
2018-09-12T10:04:06.004Z,1011
2018-09-12T10:05:08.136Z,1011
2018-09-12T10:06:10.243Z,1010.9
2018-09-12T10:07:12.359Z,1010.9
2018-09-12T10:08:14.451Z,1011
2018-09-12T10:09:16.565Z,1011
2018-09-12T10:10:18.992Z,1011
2018-09-12T10:11:21.092Z,1011.1
2018-09-12T10:12:23.209Z,1011.1
2018-09-12T10:13:25.316Z,1011.1
2018-09-12T10:14:27.429Z,1011.1
2018-09-12T10:15:29.824Z,1011
2018-09-12T10:16:32.276Z,1011
2018-09-12T10:17:34.384Z,1010.9
2018-09-12T10:18:36.788Z,1010.9
2018-09-12T10:19:39.192Z,1010.9
2018-09-12T10:20:41.287Z,1010.9
2018-09-12T10:21:43.406Z,1010.9
2018-09-12T10:22:45.515Z,1010.9
2018-09-12T10:23:47.620Z,1011
2018-09-12T10:24:50.017Z,1011.1
2018-09-12T10:25:52.132Z,1011.1
2018-09-12T10:26:54.230Z,1011.1
2018-09-12T10:27:56.359Z,1011.1
2018-09-12T10:28:58.458Z,1011
2018-09-12T10:30:00.565Z,1011.1
2018-09-12T10:31:02.953Z,1011.1
2018-09-12T10:32:05.357Z,1011.1
2018-09-12T10:33:07.746Z,1011.1
2018-09-12T10:34:09.861Z,1011.1
2018-09-12T10:35:11.973Z,1011.1
2018-09-12T10:36:14.351Z,1011.1
2018-09-12T10:37:16.499Z,1011.1
2018-09-12T10:38:18.618Z,1011.1
2018-09-12T10:39:20.727Z,1011.1
2018-09-12T10:40:23.813Z,1011.1
2018-09-12T10:41:25.937Z,1011.1
2018-09-12T10:42:28.051Z,1011.1
2018-09-12T10:43:30.157Z,1011.2
2018-09-12T10:44:32.272Z,1011.3
2018-09-12T10:45:34.367Z,1011.3
2018-09-12T10:46:36.482Z,1011.3
2018-09-12T10:47:38.594Z,1011.3
2018-09-12T10:48:40.713Z,1011.3
2018-09-12T10:49:42.806Z,1011.3
2018-09-12T10:50:45.311Z,1011.3
2018-09-12T10:51:47.410Z,1011.3
2018-09-12T10:52:49.523Z,1011.3
2018-09-12T10:53:52.337Z,1011.2
2018-09-12T10:54:54.720Z,1011.2
2018-09-12T10:55:56.825Z,1011.2
2018-09-12T10:56:58.938Z,1011.2
2018-09-12T10:58:01.058Z,1011.1
2018-09-12T10:59:03.447Z,1011.1
2018-09-12T11:00:05.556Z,1011.1
2018-09-12T11:01:07.651Z,1011
2018-09-12T11:02:09.765Z,1011
2018-09-12T11:03:11.887Z,1011
2018-09-12T11:04:14.011Z,1011
2018-09-12T11:05:16.095Z,1011
2018-09-12T11:06:18.213Z,1011
2018-09-12T11:07:20.328Z,1011.1
2018-09-12T11:08:22.732Z,1011
2018-09-12T11:09:24.848Z,1011.1
2018-09-12T11:10:26.941Z,1011.1
2018-09-12T11:11:29.072Z,1011.1
2018-09-12T11:12:31.181Z,1011.1
2018-09-12T11:13:33.303Z,1011.1
2018-09-12T11:14:35.404Z,1011.1
2018-09-12T11:15:37.502Z,1011.2
2018-09-12T11:16:39.609Z,1011.2
2018-09-12T11:17:41.724Z,1011.2
2018-09-12T11:18:44.599Z,1011.3
2018-09-12T11:19:46.718Z,1011.2
2018-09-12T11:20:48.831Z,1011.2
2018-09-12T11:21:51.231Z,1011.2
2018-09-12T11:22:53.712Z,1011.2
2018-09-12T11:23:55.869Z,1011.3
2018-09-12T11:24:57.935Z,1011.3
2018-09-12T11:26:00.041Z,1011.3
2018-09-12T11:27:02.160Z,1011.3
2018-09-12T11:28:04.259Z,1011.2
2018-09-12T11:29:06.371Z,1011.2
2018-09-12T11:30:08.847Z,1011.3
2018-09-12T11:31:11.341Z,1011.2
2018-09-12T11:32:13.753Z,1011.2
2018-09-12T11:33:15.866Z,1011.2
2018-09-12T11:34:18.037Z,1011.2
2018-09-12T11:35:20.531Z,1011.2
2018-09-12T11:36:22.653Z,1011.2
2018-09-12T11:37:25.050Z,1011.3
2018-09-12T11:38:27.721Z,1011.3
2018-09-12T11:39:30.231Z,1011.3
2018-09-12T11:40:32.341Z,1011.3
2018-09-12T11:41:34.734Z,1011.4
2018-09-12T11:42:36.851Z,1011.4
2018-09-12T11:43:39.231Z,1011.4
2018-09-12T11:44:41.344Z,1011.5
2018-09-12T11:45:43.454Z,1011.5
2018-09-12T11:46:45.565Z,1011.5
2018-09-12T11:47:47.657Z,1011.5
2018-09-12T11:48:49.770Z,1011.5
2018-09-12T11:49:52.557Z,1011.6
2018-09-12T11:50:54.944Z,1011.5
2018-09-12T11:51:57.055Z,1011.6
2018-09-12T11:52:59.169Z,1011.6
2018-09-12T11:54:01.274Z,1011.7
2018-09-12T11:55:04.112Z,1011.6
2018-09-12T11:56:06.498Z,1011.7
2018-09-12T11:57:09.002Z,1011.7
2018-09-12T11:58:11.102Z,1011.7
2018-09-12T11:59:13.202Z,1011.7
2018-09-12T12:00:15.609Z,1011.7
2018-09-12T12:01:18.009Z,1011.7
2018-09-12T12:02:20.795Z,1011.7
2018-09-12T12:03:23.228Z,1011.6
2018-09-12T12:04:26.016Z,1011.6
2018-09-12T12:05:28.111Z,1011.6
2018-09-12T12:06:30.510Z,1011.6
2018-09-12T12:07:32.620Z,1011.6
2018-09-12T12:08:34.712Z,1011.5
2018-09-12T12:09:37.124Z,1011.6
2018-09-12T12:10:39.521Z,1011.5
2018-09-12T12:11:41.619Z,1011.5
2018-09-12T12:12:43.736Z,1011.5
2018-09-12T12:13:46.119Z,1011.5
2018-09-12T12:14:48.513Z,1011.5
2018-09-12T12:15:50.639Z,1011.5
2018-09-12T12:16:52.730Z,1011.5
2018-09-12T12:17:55.143Z,1011.5
2018-09-12T12:18:57.637Z,1011.5
2018-09-12T12:19:59.756Z,1011.5
2018-09-12T12:21:01.849Z,1011.4
2018-09-12T12:22:03.961Z,1011.4
2018-09-12T12:23:06.073Z,1011.4
2018-09-12T12:24:08.968Z,1011.4
2018-09-12T12:25:11.091Z,1011.4
2018-09-12T12:26:13.187Z,1011.5
2018-09-12T12:27:15.294Z,1011.5
2018-09-12T12:28:17.396Z,1011.5
2018-09-12T12:29:19.515Z,1011.5
2018-09-12T12:30:21.622Z,1011.6
2018-09-12T12:31:23.727Z,1011.6
2018-09-12T12:32:26.227Z,1011.6
2018-09-12T12:33:28.345Z,1011.6
2018-09-12T12:34:30.439Z,1011.7
2018-09-12T12:35:32.554Z,1011.6
2018-09-12T12:36:35.016Z,1011.7
2018-09-12T12:37:37.120Z,1011.7
2018-09-12T12:38:39.220Z,1011.6
2018-09-12T12:39:41.650Z,1011.6
2018-09-12T12:40:43.754Z,1011.6
2018-09-12T12:41:45.864Z,1011.6
2018-09-12T12:42:48.267Z,1011.6
2018-09-12T12:43:50.375Z,1011.6
2018-09-12T12:44:53.156Z,1011.6
2018-09-12T12:45:55.274Z,1011.6
2018-09-12T12:46:57.374Z,1011.6
2018-09-12T12:47:59.795Z,1011.6
2018-09-12T12:49:02.315Z,1011.7
2018-09-12T12:50:04.406Z,1011.7
2018-09-12T12:51:06.520Z,1011.7
2018-09-12T12:52:08.634Z,1011.8
2018-09-12T12:53:10.751Z,1011.8
2018-09-12T12:54:13.141Z,1011.8
2018-09-12T12:55:15.266Z,1011.8
2018-09-12T12:56:17.369Z,1011.8
2018-09-12T12:57:19.759Z,1011.7
2018-09-12T12:58:22.174Z,1011.7
2018-09-12T12:59:24.273Z,1011.8
2018-09-12T13:00:26.684Z,1011.8
2018-09-12T13:01:28.780Z,1011.8
2018-09-12T13:02:31.181Z,1011.8
2018-09-12T13:03:33.563Z,1011.8
2018-09-12T13:04:35.669Z,1011.9
2018-09-12T13:05:37.786Z,1011.9